Time;durP1;ratioP1;P1;durP2;ratioP2;P2;SDS_P1;SDS_P2;PMS_P1;PMS_P2;Temp;Humidity;BMP_temperature;BMP_pressure;BME280_temperature;BME280_humidity;BME280_pressure;Samples;Min_cycle;Max_cycle;Signal;HPM_P1;HPM_P2
2023/08/02 00:01:32;;;;;;;8.85;1.33;;;15.80;99.90;;;;;;5044491;28;20169;-90
2023/08/02 00:03:59;;;;;;;7.05;1.40;;;15.70;99.90;;;;;;5044328;28;20170;-92
2023/08/02 00:06:27;;;;;;;5.50;1.35;;;15.80;99.90;;;;;;5027781;28;20171;-93
2023/08/02 00:08:52;;;;;;;3.35;0.98;;;15.70;99.90;;;;;;5041987;28;20166;-92
2023/08/02 00:11:18;;;;;;;4.30;1.20;;;15.80;99.90;;;;;;5043361;28;20180;-91
2023/08/02 00:13:44;;;;;;;2.30;1.02;;;15.80;99.90;;;;;;5040204;28;20201;-91
2023/08/02 00:16:10;;;;;;;4.75;1.10;;;15.80;99.90;;;;;;5033792;28;20181;-90
2023/08/02 00:18:36;;;;;;;2.50;0.82;;;15.80;99.90;;;;;;5051371;28;20183;-90
2023/08/02 00:21:02;;;;;;;2.47;0.90;;;15.80;99.90;;;;;;5041905;28;20255;-89
2023/08/02 00:23:27;;;;;;;4.05;1.35;;;15.80;99.90;;;;;;5048072;28;20173;-88
2023/08/02 00:25:53;;;;;;;5.18;1.20;;;15.80;99.90;;;;;;5039866;28;20184;-89
2023/08/02 00:28:18;;;;;;;2.80;1.10;;;15.60;99.90;;;;;;5044579;28;20189;-90
2023/08/02 00:30:45;;;;;;;2.72;1.08;;;15.70;99.90;;;;;;5058386;28;20185;-90
2023/08/02 00:33:11;;;;;;;3.42;0.90;;;15.70;99.90;;;;;;5042376;28;20166;-94
2023/08/02 00:35:45;;;;;;;2.65;0.80;;;16.00;99.90;;;;;;5036396;28;20181;-91
2023/08/02 00:38:11;;;;;;;2.08;0.70;;;15.80;99.90;;;;;;5036755;28;20235;-85
2023/08/02 00:40:38;;;;;;;1.40;0.65;;;15.80;99.90;;;;;;5036602;28;20216;-91
2023/08/02 00:43:03;;;;;;;2.63;0.70;;;15.80;99.90;;;;;;5036180;28;20174;-91
2023/08/02 00:45:29;;;;;;;2.22;0.55;;;15.80;99.90;;;;;;5036112;28;20248;-87
2023/08/02 00:47:57;;;;;;;2.00;0.60;;;15.90;99.90;;;;;;5035653;28;20206;-86
2023/08/02 00:50:24;;;;;;;1.30;0.60;;;15.80;99.90;;;;;;5035238;28;20190;-87
2023/08/02 00:52:50;;;;;;;1.67;0.60;;;15.80;99.90;;;;;;5035367;28;20196;-86
2023/08/02 00:55:16;;;;;;;1.45;0.50;;;15.90;99.90;;;;;;5037289;28;20649;-92
2023/08/02 00:57:45;;;;;;;0.82;0.30;;;16.00;99.90;;;;;;5041321;28;20177;-85
2023/08/02 01:00:12;;;;;;;1.05;0.50;;;16.00;99.90;;;;;;5018296;28;20232;-86
2023/08/02 01:02:37;;;;;;;1.23;0.40;;;16.00;99.90;;;;;;5035467;28;20548;-85
2023/08/02 01:05:03;;;;;;;0.90;0.30;;;16.00;99.90;;;;;;5035698;28;20173;-87
2023/08/02 01:07:35;;;;;;;0.45;0.28;;;15.90;99.90;;;;;;5052887;28;20181;-88
2023/08/02 01:10:21;;;;;;;0.57;0.30;;;15.90;99.90;;;;;;5047726;28;20190;-88
2023/08/02 01:12:50;;;;;;;0.32;0.20;;;16.00;99.90;;;;;;5035022;28;20655;-86
2023/08/02 01:15:17;;;;;;;3.17;0.30;;;16.00;99.90;;;;;;5035774;28;20170;-89
2023/08/02 01:17:43;;;;;;;0.40;0.10;;;16.10;99.90;;;;;;5035641;28;20252;-87
2023/08/02 01:20:09;;;;;;;0.82;0.30;;;16.10;99.90;;;;;;5033710;28;20214;-89
2023/08/02 01:22:35;;;;;;;0.20;0.10;;;16.20;99.90;;;;;;5035172;28;20170;-90
2023/08/02 01:25:01;;;;;;;1.45;0.32;;;16.20;99.90;;;;;;5034056;28;20549;-89
2023/08/02 01:27:56;;;;;;;0.47;0.20;;;16.20;99.90;;;;;;5035187;28;20169;-87
2023/08/02 01:30:24;;;;;;;0.47;0.30;;;16.30;99.90;;;;;;5034711;28;20210;-87
2023/08/02 01:32:50;;;;;;;1.30;0.17;;;16.30;99.90;;;;;;5040182;28;20170;-87
2023/08/02 01:35:16;;;;;;;0.35;0.20;;;16.40;99.90;;;;;;5035392;28;20659;-88
2023/08/02 01:37:42;;;;;;;0.63;0.20;;;16.40;99.90;;;;;;5034926;28;20225;-88
2023/08/02 01:40:09;;;;;;;1.42;0.30;;;18.40;99.90;;;;;;5034908;28;20212;-87
2023/08/02 01:42:36;;;;;;;0.30;0.30;;;16.50;99.90;;;;;;5034164;28;20178;-86
2023/08/02 01:45:01;;;;;;;1.10;0.30;;;16.60;99.90;;;;;;5051482;28;20158;-88
2023/08/02 01:47:27;;;;;;;0.65;0.17;;;16.60;99.90;;;;;;5051307;28;20188;-88
2023/08/02 01:49:53;;;;;;;1.05;0.13;;;16.70;99.90;;;;;;5035073;28;20174;-87
2023/08/02 01:52:19;;;;;;;1.52;0.25;;;16.70;99.90;;;;;;5035216;28;20168;-87
2023/08/02 01:54:44;;;;;;;0.57;0.20;;;16.80;99.90;;;;;;5035122;28;20178;-86
2023/08/02 01:57:10;;;;;;;0.20;0.20;;;16.80;99.90;;;;;;5035429;28;20274;-86
2023/08/02 01:59:36;;;;;;;2.92;0.93;;;16.90;99.90;;;;;;5034560;28;20201;-87
2023/08/02 02:02:01;;;;;;;0.30;0.20;;;16.90;99.90;;;;;;5034618;28;20185;-88
2023/08/02 02:04:27;;;;;;;0.50;0.13;;;16.90;99.90;;;;;;5033276;28;20217;-87
2023/08/02 02:06:53;;;;;;;0.10;0.10;;;16.90;99.90;;;;;;5033808;28;20564;-89
2023/08/02 02:09:18;;;;;;;0.98;0.20;;;17.00;99.90;;;;;;5033966;28;20181;-87
2023/08/02 02:11:44;;;;;;;1.63;0.10;;;17.00;99.90;;;;;;5034058;28;20185;-86
2023/08/02 02:14:09;;;;;;;0.40;0.10;;;17.10;99.90;;;;;;5033952;28;20169;-86
2023/08/02 02:16:35;;;;;;;1.40;0.20;;;17.10;99.90;;;;;;5033124;28;20585;-87
2023/08/02 02:19:00;;;;;;;0.10;0.10;;;17.10;99.90;;;;;;5033671;28;20684;-87
2023/08/02 02:21:27;;;;;;;0.80;0.15;;;17.10;99.90;;;;;;5034556;28;20167;-87
2023/08/02 02:23:52;;;;;;;0.55;0.10;;;17.20;99.90;;;;;;5056590;28;20201;-88
2023/08/02 02:26:18;;;;;;;0.00;0.00;;;17.30;99.90;;;;;;5043949;28;20194;-87
2023/08/02 02:28:43;;;;;;;0.17;0.10;;;17.20;99.90;;;;;;5038063;28;20610;-87
2023/08/02 02:31:09;;;;;;;0.00;0.00;;;17.30;99.90;;;;;;5033856;28;20174;-87
2023/08/02 02:33:34;;;;;;;0.20;0.17;;;17.30;99.90;;;;;;5035031;28;20170;-86
2023/08/02 02:36:00;;;;;;;2.83;0.20;;;17.50;99.90;;;;;;5034258;28;20177;-88
2023/08/02 02:38:26;;;;;;;2.58;0.20;;;17.50;99.90;;;;;;5042755;28;20213;-87
2023/08/02 02:40:51;;;;;;;1.35;0.10;;;17.50;99.90;;;;;;5052325;28;20225;-88
2023/08/02 02:43:17;;;;;;;1.10;0.20;;;17.60;99.90;;;;;;5034013;28;20181;-85
2023/08/02 02:45:42;;;;;;;0.75;0.20;;;17.70;99.90;;;;;;5055100;28;20177;-87
2023/08/02 02:48:08;;;;;;;1.10;0.20;;;17.60;99.90;;;;;;5047513;28;20201;-89
2023/08/02 02:50:34;;;;;;;0.30;0.10;;;17.80;99.90;;;;;;5037131;28;20181;-88
2023/08/02 02:52:59;;;;;;;0.40;0.10;;;17.70;99.90;;;;;;5035232;28;20178;-89
2023/08/02 02:55:25;;;;;;;0.93;0.30;;;17.60;99.90;;;;;;5034094;28;20174;-89
2023/08/02 02:57:50;;;;;;;0.77;0.17;;;17.60;99.90;;;;;;5034739;28;20186;-88
2023/08/02 03:00:16;;;;;;;2.03;0.30;;;17.60;99.90;;;;;;5021357;28;20219;-84
2023/08/02 03:02:42;;;;;;;1.00;0.30;;;17.60;99.90;;;;;;5035407;28;20209;-89
2023/08/02 03:05:08;;;;;;;1.30;0.30;;;17.70;99.90;;;;;;5035665;28;20552;-89
2023/08/02 03:07:33;;;;;;;0.98;0.20;;;17.70;99.90;;;;;;5035113;28;20238;-90
2023/08/02 03:09:59;;;;;;;1.02;0.20;;;17.70;99.90;;;;;;5035730;28;20231;-91
2023/08/02 03:12:25;;;;;;;0.68;0.20;;;17.70;99.90;;;;;;5037793;28;20174;-89
2023/08/02 03:14:50;;;;;;;2.55;0.22;;;17.70;99.90;;;;;;5047817;28;20177;-88
2023/08/02 03:17:16;;;;;;;1.88;0.20;;;17.70;99.90;;;;;;5044089;28;20212;-87
2023/08/02 03:19:41;;;;;;;3.13;0.30;;;17.70;99.90;;;;;;5051581;28;20245;-89
2023/08/02 03:22:07;;;;;;;1.05;0.20;;;17.70;99.90;;;;;;5055716;28;20157;-87
2023/08/02 03:24:33;;;;;;;1.30;0.30;;;17.70;99.90;;;;;;5055225;28;20193;-83
2023/08/02 03:26:58;;;;;;;1.17;0.30;;;17.50;99.90;;;;;;5042693;28;20663;-88
2023/08/02 03:29:24;;;;;;;2.15;0.73;;;17.30;99.90;;;;;;5042100;28;20706;-87
2023/08/02 03:31:50;;;;;;;2.42;0.50;;;17.30;99.90;;;;;;5037260;28;20264;-83
2023/08/02 03:34:15;;;;;;;6.88;1.75;;;17.30;99.90;;;;;;5037046;28;20569;-88
2023/08/02 03:36:44;;;;;;;7.95;1.52;;;17.10;99.90;;;;;;5040820;28;20218;-90
2023/08/02 03:39:10;;;;;;;6.93;2.08;;;17.00;99.90;;;;;;5057317;28;20263;-86
2023/08/02 03:41:37;;;;;;;10.30;2.03;;;17.00;99.90;;;;;;5070407;28;20185;-88
2023/08/02 03:44:03;;;;;;;14.23;2.10;;;16.90;99.90;;;;;;5056890;28;20184;-90
2023/08/02 03:46:29;;;;;;;16.05;1.98;;;16.90;99.90;;;;;;5054120;28;20174;-87
2023/08/02 03:48:54;;;;;;;17.58;2.40;;;16.90;99.90;;;;;;5035941;28;20231;-86
2023/08/02 03:51:20;;;;;;;18.88;2.63;;;16.90;99.90;;;;;;5034606;28;20178;-83
2023/08/02 03:53:46;;;;;;;12.88;2.25;;;16.90;99.90;;;;;;5025878;28;20189;-87
2023/08/02 03:56:11;;;;;;;10.27;1.85;;;16.80;99.90;;;;;;5029156;28;20652;-84
2023/08/02 03:58:37;;;;;;;13.27;2.17;;;16.80;99.90;;;;;;5034595;28;20174;-86
2023/08/02 04:01:03;;;;;;;9.13;1.88;;;16.70;99.90;;;;;;5047834;28;20344;-92
2023/08/02 04:03:28;;;;;;;8.45;1.52;;;16.70;99.90;;;;;;5049116;28;20185;-88
2023/08/02 04:05:54;;;;;;;8.05;1.83;;;16.70;99.90;;;;;;5036619;28;20180;-88
2023/08/02 04:08:19;;;;;;;10.90;1.55;;;16.40;99.90;;;;;;5032977;28;20598;-86
2023/08/02 04:10:45;;;;;;;11.80;1.95;;;16.30;99.90;;;;;;5033328;28;20244;-89
2023/08/02 04:13:11;;;;;;;15.13;2.03;;;16.20;99.90;;;;;;5012740;28;20221;-85
2023/08/02 04:15:36;;;;;;;12.07;2.03;;;16.30;99.90;;;;;;5055648;28;20173;-89
2023/08/02 04:18:03;;;;;;;14.65;2.38;;;;;;;;;;5070238;28;20173;-86
2023/08/02 04:20:29;;;;;;;12.68;1.83;;;16.10;99.90;;;;;;5036508;28;20259;-84
2023/08/02 04:22:55;;;;;;;11.30;1.92;;;16.20;99.90;;;;;;5034068;28;20178;-81
2023/08/02 04:25:20;;;;;;;17.10;2.47;;;16.10;99.90;;;;;;5032230;28;20544;-87
2023/08/02 04:27:46;;;;;;;15.43;2.08;;;;;;;;;;5030374;28;20177;-82
2023/08/02 04:30:12;;;;;;;18.27;2.55;;;;;;;;;;5031457;28;20664;-85
2023/08/02 04:32:38;;;;;;;13.57;2.10;;;;;;;;;;5030857;28;20177;-82
2023/08/02 04:35:04;;;;;;;14.55;2.30;;;16.00;99.90;;;;;;5030814;28;20263;-88
2023/08/02 04:37:30;;;;;;;13.68;1.98;;;;;;;;;;5030983;28;20677;-82
2023/08/02 04:39:56;;;;;;;8.05;1.50;;;16.00;99.90;;;;;;5030981;28;20672;-88
2023/08/02 04:42:24;;;;;;;6.20;1.17;;;16.10;99.90;;;;;;5031224;28;20174;-84
2023/08/02 04:44:50;;;;;;;7.40;1.52;;;15.80;99.90;;;;;;5031174;28;20177;-85
2023/08/02 04:47:16;;;;;;;9.45;1.35;;;15.90;99.90;;;;;;5031258;28;20182;-84
2023/08/02 04:49:42;;;;;;;8.57;1.05;;;;;;;;;;5031175;28;20707;-83
2023/08/02 04:52:07;;;;;;;5.97;0.70;;;16.00;99.90;;;;;;5029743;28;20186;-88
2023/08/02 04:54:34;;;;;;;9.32;1.00;;;16.00;99.90;;;;;;5041135;28;20162;-84
2023/08/02 04:56:59;;;;;;;7.15;0.98;;;;;;;;;;5041018;28;20174;-86
2023/08/02 04:59:25;;;;;;;8.43;1.15;;;;;;;;;;5030970;28;20212;-88
2023/08/02 05:01:51;;;;;;;4.53;1.15;;;;;;;;;;5031509;28;20231;-87
2023/08/02 05:04:17;;;;;;;7.90;1.30;;;;;;;;;;5030651;28;20181;-85
2023/08/02 05:06:43;;;;;;;5.32;0.85;;;15.80;99.90;;;;;;5036175;28;20659;-86
2023/08/02 05:09:09;;;;;;;5.88;1.15;;;;;;;;;;5035725;28;20267;-86
2023/08/02 05:11:37;;;;;;;6.35;0.75;;;15.80;99.90;;;;;;5035462;28;20173;-86
2023/08/02 05:14:03;;;;;;;19.02;1.58;;;16.10;99.90;;;;;;5035114;28;20170;-83
2023/08/02 05:16:29;;;;;;;14.40;1.67;;;;;;;;;;5034581;28;20249;-87
2023/08/02 05:18:55;;;;;;;8.75;0.98;;;;;;;;;;5033489;28;20574;-85
2023/08/02 05:21:23;;;;;;;7.30;1.38;;;15.90;99.90;;;;;;5035016;28;20181;-89
2023/08/02 05:23:49;;;;;;;5.10;0.77;;;16.10;99.90;;;;;;5034430;28;20178;-89
2023/08/02 05:26:15;;;;;;;4.93;0.93;;;;;;;;;;5035522;28;20174;-93
2023/08/02 05:28:41;;;;;;;6.80;0.82;;;15.60;99.90;;;;;;5034705;28;20636;-88
2023/08/02 05:31:12;;;;;;;5.35;0.70;;;;;;;;;;5035932;28;20675;-92
2023/08/02 05:33:38;;;;;;;2.53;0.47;;;;;;;;;;5057924;28;20241;-92
2023/08/02 05:36:05;;;;;;;6.60;1.02;;;15.70;99.90;;;;;;5044412;28;20182;-91
2023/08/02 05:38:32;;;;;;;2.10;0.43;;;15.40;99.90;;;;;;5035658;28;20218;-90
2023/08/02 05:41:02;;;;;;;3.42;0.57;;;15.30;99.90;;;;;;5035922;28;20241;-91
2023/08/02 05:43:28;;;;;;;5.55;0.70;;;15.50;99.90;;;;;;5035948;28;20178;-90
2023/08/02 05:45:55;;;;;;;5.50;1.13;;;15.40;99.90;;;;;;5034574;28;20177;-89
2023/08/02 05:48:21;;;;;;;6.43;0.90;;;;;;;;;;5038966;28;20171;-91
2023/08/02 05:50:46;;;;;;;4.40;0.82;;;;;;;;;;5045890;28;20204;-89
2023/08/02 05:53:12;;;;;;;6.45;0.90;;;;;;;;;;5040736;28;20186;-86
2023/08/02 05:55:38;;;;;;;6.70;1.00;;;;;;;;;;5036184;28;20777;-85
2023/08/02 05:58:04;;;;;;;2.28;0.70;;;15.00;99.90;;;;;;5034845;28;20261;-85
2023/08/02 06:00:30;;;;;;;3.85;0.60;;;15.20;99.90;;;;;;5034601;28;20301;-87
2023/08/02 06:02:55;;;;;;;5.75;1.10;;;15.20;99.90;;;;;;5036031;28;20185;-86
2023/08/02 06:05:21;;;;;;;3.88;0.60;;;15.10;99.90;;;;;;5034242;28;20610;-85
2023/08/02 06:07:46;;;;;;;6.90;0.90;;;15.20;99.90;;;;;;5036380;28;20691;-88
2023/08/02 06:10:12;;;;;;;6.30;0.98;;;15.10;99.90;;;;;;5041572;28;20185;-88
2023/08/02 06:12:38;;;;;;;5.28;0.85;;;15.40;99.90;;;;;;5053802;28;20672;-86
2023/08/02 06:15:04;;;;;;;5.68;0.75;;;;;;;;;;5035156;28;20181;-85
2023/08/02 06:17:30;;;;;;;12.23;1.30;;;15.60;99.90;;;;;;5032328;28;20181;-84
2023/08/02 06:19:56;;;;;;;7.55;1.65;;;;;;;;;;5031867;28;20210;-84
2023/08/02 06:22:22;;;;;;;7.90;1.77;;;;;;;;;;5033635;28;20232;-84
2023/08/02 06:24:48;;;;;;;5.10;0.80;;;;;;;;;;5033290;28;20220;-84
2023/08/02 06:27:13;;;;;;;12.52;1.05;;;15.70;99.90;;;;;;5033019;28;20178;-84
2023/08/02 06:29:40;;;;;;;9.43;1.17;;;;;;;;;;5035466;28;20186;-83
2023/08/02 06:32:06;;;;;;;9.10;1.48;;;15.80;99.90;;;;;;5051704;28;20200;-83
2023/08/02 06:34:31;;;;;;;10.07;1.58;;;15.70;99.90;;;;;;5054792;28;20193;-83
2023/08/02 06:36:57;;;;;;;7.95;1.20;;;15.70;99.90;;;;;;5051553;28;20218;-86
2023/08/02 06:39:22;;;;;;;7.78;1.23;;;15.80;99.90;;;;;;5030426;28;20205;-84
2023/08/02 06:41:48;;;;;;;5.93;1.20;;;15.80;99.90;;;;;;5038036;28;20240;-83
2023/08/02 06:44:14;;;;;;;7.63;1.20;;;;;;;;;;5034901;28;20213;-92
2023/08/02 06:46:43;;;;;;;7.28;1.25;;;15.90;99.90;;;;;;5035477;28;20621;-88
2023/08/02 06:49:08;;;;;;;7.75;1.33;;;15.90;99.90;;;;;;5052263;28;20184;-87
2023/08/02 06:51:34;;;;;;;9.98;1.35;;;15.90;99.90;;;;;;5049477;28;20185;-90
2023/08/02 06:53:59;;;;;;;4.03;0.98;;;16.00;99.90;;;;;;5038902;28;20197;-86
2023/08/02 06:56:25;;;;;;;7.88;1.10;;;16.00;99.90;;;;;;5038028;28;20177;-88
2023/08/02 06:58:51;;;;;;;10.95;1.10;;;15.80;99.90;;;;;;5040889;28;20181;-78
2023/08/02 07:01:22;;;;;;;6.50;1.02;;;15.80;99.90;;;;;;5036929;28;20185;-79
2023/08/02 07:03:49;;;;;;;11.07;1.40;;;15.70;99.90;;;;;;5031717;28;20629;-75
2023/08/02 07:06:20;;;;;;;3.80;0.82;;;15.70;99.90;;;;;;5031865;28;20639;-76
2023/08/02 07:08:46;;;;;;;6.80;1.20;;;15.90;99.90;;;;;;5031857;28;20178;-77
2023/08/02 07:11:12;;;;;;;4.25;1.25;;;15.80;99.90;;;;;;5034340;28;20177;-79
2023/08/02 07:13:41;;;;;;;4.82;0.90;;;15.90;99.90;;;;;;5036403;28;20285;-80
2023/08/02 07:16:07;;;;;;;7.05;0.90;;;16.10;99.90;;;;;;5031698;28;20185;-75
2023/08/02 07:18:33;;;;;;;4.22;0.57;;;;;;;;;;5031963;28;20172;-82
2023/08/02 07:21:05;;;;;;;4.45;0.80;;;16.20;99.90;;;;;;5032015;28;20794;-86
2023/08/02 07:23:31;;;;;;;5.68;0.90;;;16.30;99.90;;;;;;5043855;28;20698;-84
2023/08/02 07:25:57;;;;;;;7.38;1.00;;;16.30;99.90;;;;;;5038873;28;20158;-78
2023/08/02 07:28:23;;;;;;;8.50;0.95;;;16.50;99.90;;;;;;5044779;28;20247;-77
2023/08/02 07:30:48;;;;;;;5.43;0.77;;;16.40;99.90;;;;;;5041252;28;20726;-81
2023/08/02 07:33:14;;;;;;;5.63;0.90;;;16.60;99.90;;;;;;5051505;28;20262;-79
2023/08/02 07:35:40;;;;;;;5.78;1.13;;;;;;;;;;5052908;28;20536;-88
2023/08/02 07:38:06;;;;;;;5.63;1.05;;;16.80;99.90;;;;;;5055095;28;20221;-83
2023/08/02 07:40:31;;;;;;;9.75;1.95;;;16.80;99.90;;;;;;5052642;28;20204;-80
2023/08/02 07:42:57;;;;;;;7.28;1.02;;;16.90;99.90;;;;;;5036820;28;20176;-77
2023/08/02 07:45:23;;;;;;;8.00;1.25;;;17.20;99.90;;;;;;5040902;28;20264;-76
2023/08/02 07:47:48;;;;;;;7.00;1.20;;;17.10;99.90;;;;;;5051529;28;20153;-78
2023/08/02 07:50:14;;;;;;;7.80;1.17;;;17.20;99.90;;;;;;5061115;28;20177;-80
2023/08/02 07:52:40;;;;;;;6.53;0.77;;;17.10;99.90;;;;;;5053180;28;20541;-79
2023/08/02 07:55:05;;;;;;;7.70;1.13;;;16.90;99.90;;;;;;5052299;28;20175;-81
2023/08/02 07:57:32;;;;;;;8.95;1.30;;;17.00;99.90;;;;;;5034506;28;20644;-78
2023/08/02 07:59:58;;;;;;;7.50;1.23;;;;;;;;;;5031030;28;20210;-78
2023/08/02 08:02:27;;;;;;;8.15;1.23;;;17.00;99.90;;;;;;5035035;28;20174;-79
2023/08/02 08:04:56;;;;;;;11.25;1.90;;;17.30;99.90;;;;;;5044147;28;20194;-75
2023/08/02 08:07:21;;;;;;;6.20;1.23;;;17.00;99.90;;;;;;5032362;28;20177;-75
2023/08/02 08:09:50;;;;;;;8.07;1.23;;;17.30;99.90;;;;;;5050953;28;20181;-77
2023/08/02 08:12:15;;;;;;;6.07;1.40;;;17.30;99.90;;;;;;5050235;28;20177;-77
2023/08/02 08:14:42;;;;;;;9.63;1.17;;;17.30;99.90;;;;;;5051187;28;20180;-75
2023/08/02 08:17:08;;;;;;;9.55;1.63;;;17.60;99.90;;;;;;5049558;28;20492;-79
2023/08/02 08:19:34;;;;;;;6.97;1.60;;;18.20;99.90;;;;;;5049709;28;20205;-76
2023/08/02 08:22:00;;;;;;;11.70;1.63;;;17.60;99.90;;;;;;5049408;28;20176;-76
2023/08/02 08:24:25;;;;;;;14.02;1.83;;;17.50;99.90;;;;;;5050715;28;20231;-80
2023/08/02 08:26:53;;;;;;;14.00;1.85;;;17.40;99.90;;;;;;5037702;28;20186;-83
2023/08/02 08:29:18;;;;;;;8.20;1.55;;;17.40;99.90;;;;;;5029808;28;20273;-76
2023/08/02 08:31:44;;;;;;;5.07;1.42;;;17.30;99.90;;;;;;5031284;28;20696;-85
2023/08/02 08:34:10;;;;;;;10.45;1.58;;;17.20;99.90;;;;;;5031581;28;20180;-78
2023/08/02 08:36:36;;;;;;;8.60;1.25;;;17.20;99.90;;;;;;5031574;28;20700;-85
2023/08/02 08:39:02;;;;;;;7.60;1.40;;;17.10;99.90;;;;;;5030890;28;20264;-82
2023/08/02 08:41:28;;;;;;;12.13;1.80;;;17.20;99.90;;;;;;5047205;28;20180;-77
2023/08/02 08:43:54;;;;;;;10.35;1.80;;;17.30;99.90;;;;;;5065680;28;20169;-83
2023/08/02 08:46:20;;;;;;;4.75;1.23;;;17.40;99.90;;;;;;5049238;28;20174;-85
2023/08/02 08:48:47;;;;;;;17.40;2.35;;;17.20;99.90;;;;;;5036520;28;20173;-88
2023/08/02 08:51:14;;;;;;;8.25;1.35;;;17.20;99.90;;;;;;5039051;28;20177;-88
2023/08/02 08:53:48;;;;;;;10.93;1.60;;;17.20;99.90;;;;;;5055308;28;20184;-89
2023/08/02 08:56:15;;;;;;;12.70;1.50;;;17.10;99.90;;;;;;5045962;28;20172;-77
2023/08/02 08:58:41;;;;;;;9.38;1.60;;;17.10;99.90;;;;;;5053988;28;20169;-84
2023/08/02 09:01:07;;;;;;;11.73;1.70;;;17.00;99.90;;;;;;5054021;28;20204;-77
2023/08/02 09:03:33;;;;;;;12.80;2.30;;;17.10;99.90;;;;;;5054503;28;20478;-78
2023/08/02 09:06:00;;;;;;;8.98;1.60;;;17.30;99.90;;;;;;5047179;28;20177;-77
2023/08/02 09:08:27;;;;;;;8.10;1.40;;;17.10;99.90;;;;;;5029415;28;20372;-77
2023/08/02 09:10:53;;;;;;;8.30;1.65;;;17.10;99.90;;;;;;5013221;28;20186;-82
2023/08/02 09:13:23;;;;;;;15.52;2.15;;;14.20;99.90;;;;;;5026261;28;20166;-83
2023/08/02 09:16:04;;;;;;;5.05;1.38;;;;;;;;;;5034637;28;20181;-80
2023/08/02 09:18:39;;;;;;;10.82;1.42;;;17.10;99.90;;;;;;5034300;28;20255;-80
2023/08/02 09:21:05;;;;;;;6.25;1.48;;;17.10;99.90;;;;;;5046331;28;20205;-80
2023/08/02 09:23:31;;;;;;;8.73;1.27;;;17.20;99.90;;;;;;5033584;28;20173;-77
2023/08/02 09:26:17;;;;;;;15.05;1.85;;;17.00;99.90;;;;;;5017157;28;20249;-80
2023/08/02 09:29:00;;;;;;;9.88;1.52;;;17.20;99.90;;;;;;5012715;28;20170;-84
2023/08/02 09:31:30;;;;;;;7.80;1.27;;;17.10;99.90;;;;;;5012238;28;20175;-76
2023/08/02 09:33:57;;;;;;;8.77;1.42;;;17.40;99.90;;;;;;5013164;28;20175;-76
2023/08/02 09:36:28;;;;;;;9.55;1.73;;;17.50;99.90;;;;;;5013801;28;20246;-80
2023/08/02 09:39:09;;;;;;;8.57;1.65;;;17.80;99.90;;;;;;5013682;28;20175;-76
2023/08/02 09:41:34;;;;;;;7.03;1.70;;;18.20;99.90;;;;;;5013696;28;20178;-77
2023/08/02 09:44:00;;;;;;;8.02;1.35;;;18.80;99.90;;;;;;5013735;28;20162;-76
2023/08/02 09:46:34;;;;;;;8.35;1.67;;;19.00;99.90;;;;;;5013731;28;20182;-76
2023/08/02 09:49:01;;;;;;;10.38;1.60;;;18.70;99.90;;;;;;5013633;28;20175;-77
2023/08/02 09:51:40;;;;;;;10.48;1.45;;;18.60;99.90;;;;;;5012129;28;20178;-76
2023/08/02 09:54:07;;;;;;;11.43;1.35;;;18.70;99.90;;;;;;5013822;28;20181;-82
2023/08/02 09:56:36;;;;;;;12.82;2.13;;;18.60;99.90;;;;;;5013762;28;20171;-78
2023/08/02 09:59:03;;;;;;;6.68;1.38;;;18.20;99.90;;;;;;5026016;28;20261;-75
2023/08/02 10:01:30;;;;;;;9.63;1.60;;;18.40;99.90;;;;;;5013884;28;20167;-79
2023/08/02 10:03:58;;;;;;;4.65;1.10;;;18.20;99.90;;;;;;5013525;28;20261;-82
2023/08/02 10:06:46;;;;;;;7.95;1.70;;;17.80;99.90;;;;;;5013382;28;20178;-76
2023/08/02 10:09:18;;;;;;;7.75;1.55;;;17.90;99.90;;;;;;5011855;28;20687;-78
2023/08/02 10:11:52;;;;;;;10.05;1.45;;;17.90;99.90;;;;;;5013122;28;20179;-78
2023/08/02 10:14:19;;;;;;;7.65;1.63;;;17.90;99.90;;;;;;5013007;28;20202;-76
2023/08/02 10:16:46;;;;;;;11.50;3.05;;;18.00;99.90;;;;;;5029576;28;20206;-78
2023/08/02 10:19:12;;;;;;;13.00;2.38;;;17.90;99.90;;;;;;5012936;28;20174;-76
2023/08/02 10:21:39;;;;;;;8.30;1.65;;;18.00;99.90;;;;;;5044797;28;20182;-76
2023/08/02 10:24:05;;;;;;;11.05;1.88;;;17.90;99.90;;;;;;5012843;28;20210;-76
2023/08/02 10:26:32;;;;;;;11.77;2.22;;;18.20;99.90;;;;;;5012783;28;20674;-77
2023/08/02 10:28:59;;;;;;;11.63;2.00;;;18.30;99.90;;;;;;5012744;28;20233;-76
2023/08/02 10:31:26;;;;;;;7.22;1.83;;;18.10;99.90;;;;;;5012718;28;20177;-78
2023/08/02 10:33:52;;;;;;;8.52;2.03;;;18.10;99.90;;;;;;5013051;28;20185;-76
2023/08/02 10:36:18;;;;;;;8.18;1.80;;;18.10;99.90;;;;;;5027391;28;20171;-79
2023/08/02 10:38:43;;;;;;;14.23;2.13;;;18.10;99.90;;;;;;5013614;28;20645;-77
2023/08/02 10:41:17;;;;;;;9.55;1.55;;;18.00;99.90;;;;;;5012711;28;20308;-76
2023/08/02 10:43:55;;;;;;;9.73;1.65;;;17.80;99.90;;;;;;5011472;28;20252;-75
2023/08/02 10:46:26;;;;;;;9.30;1.88;;;17.70;99.90;;;;;;5012863;28;20171;-75
2023/08/02 10:48:52;;;;;;;11.13;1.80;;;17.50;99.90;;;;;;5011349;28;20185;-76
2023/08/02 10:51:28;;;;;;;6.50;1.30;;;17.30;99.90;;;;;;5013031;28;20235;-76
2023/08/02 10:54:11;;;;;;;5.10;1.25;;;17.20;99.90;;;;;;5012312;28;20189;-75
2023/08/02 10:56:56;;;;;;;8.50;1.60;;;17.40;99.90;;;;;;5027478;28;20184;-76
2023/08/02 10:59:24;;;;;;;7.70;1.35;;;17.50;99.90;;;;;;5012177;28;20296;-76
2023/08/02 11:02:11;;;;;;;5.05;1.02;;;17.30;99.90;;;;;;5027670;28;20185;-76
2023/08/02 11:04:44;;;;;;;6.90;1.45;;;17.30;99.90;;;;;;5012327;28;20174;-77
2023/08/02 11:07:16;;;;;;;8.13;1.35;;;15.50;99.90;;;;;;5012133;28;20196;-75
2023/08/02 11:09:42;;;;;;;6.43;1.33;;;17.20;99.90;;;;;;5012092;28;20293;-76
2023/08/02 11:12:09;;;;;;;6.07;1.38;;;17.40;99.90;;;;;;5012127;28;20171;-76
2023/08/02 11:14:36;;;;;;;4.32;0.60;;;17.30;99.90;;;;;;5022415;28;20171;-77
2023/08/02 11:17:02;;;;;;;7.80;1.23;;;17.50;99.90;;;;;;5012346;28;20175;-76
2023/08/02 11:19:29;;;;;;;4.65;1.05;;;17.80;99.90;;;;;;5012235;28;20230;-76
2023/08/02 11:21:56;;;;;;;8.38;1.42;;;18.00;99.90;;;;;;5027341;28;20633;-77
2023/08/02 11:24:23;;;;;;;2.92;0.98;;;17.90;99.90;;;;;;5010999;28;20181;-79
2023/08/02 11:26:53;;;;;;;4.68;0.93;;;17.50;99.90;;;;;;5012206;28;20173;-77
2023/08/02 11:29:20;;;;;;;4.85;0.90;;;17.40;99.90;;;;;;5011926;28;20175;-76
2023/08/02 11:31:46;;;;;;;4.00;0.82;;;17.40;99.90;;;;;;5026947;28;20205;-77
2023/08/02 11:34:17;;;;;;;2.17;0.52;;;17.50;99.90;;;;;;5027100;28;20530;-77
2023/08/02 11:36:43;;;;;;;3.17;0.75;;;17.40;99.90;;;;;;5010476;28;20250;-76
2023/08/02 11:39:12;;;;;;;3.60;0.60;;;17.50;99.90;;;;;;5026874;28;20593;-77
2023/08/02 11:41:40;;;;;;;1.08;0.50;;;17.60;99.90;;;;;;5011683;28;20264;-76
2023/08/02 11:44:17;;;;;;;4.13;0.60;;;17.60;99.90;;;;;;5026985;28;20186;-76
2023/08/02 11:46:43;;;;;;;2.60;1.13;;;17.70;99.90;;;;;;5011695;28;20174;-76
2023/08/02 11:49:09;;;;;;;2.95;0.90;;;17.90;99.90;;;;;;5011855;28;20171;-77
2023/08/02 11:51:41;;;;;;;3.28;0.95;;;18.20;99.90;;;;;;5021303;28;20169;-76
2023/08/02 11:54:08;;;;;;;1.73;0.77;;;17.90;99.90;;;;;;5015360;28;20533;-78
2023/08/02 11:56:34;;;;;;;3.67;1.15;;;18.30;99.90;;;;;;5011607;28;20474;-78
2023/08/02 11:59:00;;;;;;;3.50;0.80;;;18.60;99.90;;;;;;5011467;28;20182;-77
2023/08/02 12:01:27;;;;;;;4.13;0.73;;;18.80;99.90;;;;;;5014494;28;20213;-77
2023/08/02 12:03:57;;;;;;;1.65;0.70;;;18.80;99.90;;;;;;5010186;28;20308;-77
2023/08/02 12:06:24;;;;;;;3.25;0.68;;;18.40;99.90;;;;;;5008801;28;20178;-76
2023/08/02 12:08:53;;;;;;;0.90;0.60;;;18.60;99.90;;;;;;5014005;28;20634;-75
2023/08/02 12:11:19;;;;;;;3.33;0.70;;;19.00;99.90;;;;;;5016588;28;20253;-75
2023/08/02 12:13:45;;;;;;;3.47;0.70;;;19.10;99.90;;;;;;5016153;28;20225;-75
2023/08/02 12:16:13;;;;;;;2.05;1.08;;;19.00;99.90;;;;;;5012305;28;20578;-76
2023/08/02 12:18:56;;;;;;;1.00;0.68;;;18.90;99.90;;;;;;5011802;28;20174;-74
2023/08/02 12:21:23;;;;;;;1.17;0.40;;;18.60;99.90;;;;;;5029107;28;20209;-81
2023/08/02 12:23:49;;;;;;;1.40;0.30;;;18.70;99.90;;;;;;5044872;28;20260;-76
2023/08/02 12:26:35;;;;;;;1.25;0.40;;;19.00;99.90;;;;;;5046165;28;20256;-78
2023/08/02 12:29:02;;;;;;;0.50;0.30;;;19.40;99.90;;;;;;5030514;28;20633;-77
2023/08/02 12:31:39;;;;;;;0.70;0.30;;;19.60;99.90;;;;;;5038240;28;20212;-77
2023/08/02 12:34:05;;;;;;;3.00;0.40;;;20.10;99.90;;;;;;5030811;28;20169;-78
2023/08/02 12:36:32;;;;;;;1.05;0.32;;;19.80;99.90;;;;;;5030398;28;20221;-77
2023/08/02 12:38:57;;;;;;;0.60;0.30;;;19.50;99.90;;;;;;5047347;28;20255;-77
2023/08/02 12:41:24;;;;;;;0.95;0.50;;;19.30;99.90;;;;;;5050461;28;20307;-76
2023/08/02 12:43:50;;;;;;;1.13;0.50;;;19.00;99.90;;;;;;5051004;28;20161;-77
2023/08/02 12:46:19;;;;;;;1.83;0.40;;;19.10;99.90;;;;;;5051019;28;20272;-82
2023/08/02 12:48:46;;;;;;;0.90;0.40;;;19.20;99.90;;;;;;5047415;28;20626;-79
2023/08/02 12:51:12;;;;;;;0.45;0.30;;;19.30;99.90;;;;;;5049126;28;20177;-77
2023/08/02 12:53:38;;;;;;;1.50;0.57;;;18.80;99.90;;;;;;5049173;28;20173;-75
2023/08/02 12:56:04;;;;;;;4.47;0.60;;;18.70;99.90;;;;;;5049360;28;20523;-81